Terminal Aerodrome Forecast
Issued by NWS Knoxville/Tri Cities, TN

Current Version | Previous Version | Text Only | Print | Product List | Glossary On
Versions: 1 2 3 4 5 6 7 8 9 10 11 12 13 14 15 16 17 18 19 20 21 22 23 24 25 26 27 28 29 30
000
FTUS44 KMRX 291122
TAFCHA
TAF
KCHA 291122Z 2912/3012 35005KT P6SM SKC
     FM291700 18008KT P6SM SCT250
     FM300000 19006KT P6SM BKN050
     FM300500 21006KT P6SM VCSH OVC040
     FM300800 23007KT 4SM SHRA BR VCTS OVC020CB
     FM301100 VRB04KT 5SM -RA BR OVC015=

USA.gov is the U.S. government's official web portal to all federal, state and local government web resources and services.